sensor_id;sensor_type;location;lat;lon;timestamp;temperature;humidity
20070;DHT22;10195;50.868;4.382;2023-03-15T00:00:46;5.30;99.90
20070;DHT22;10195;50.868;4.382;2023-03-15T00:03:12;5.30;99.90
20070;DHT22;10195;50.868;4.382;2023-03-15T00:05:43;5.20;99.90
20070;DHT22;10195;50.868;4.382;2023-03-15T00:08:09;5.50;99.90
20070;DHT22;10195;50.868;4.382;2023-03-15T00:10:42;5.70;99.90
20070;DHT22;10195;50.868;4.382;2023-03-15T00:13:08;5.70;99.90
20070;DHT22;10195;50.868;4.382;2023-03-15T00:15:34;5.80;99.90
20070;DHT22;10195;50.868;4.382;2023-03-15T00:18:00;5.80;99.90
20070;DHT22;10195;50.868;4.382;2023-03-15T00:20:29;5.80;99.90
20070;DHT22;10195;50.868;4.382;2023-03-15T00:22:55;5.80;99.90
20070;DHT22;10195;50.868;4.382;2023-03-15T00:25:21;5.80;99.90
20070;DHT22;10195;50.868;4.382;2023-03-15T00:27:46;5.70;99.90
20070;DHT22;10195;50.868;4.382;2023-03-15T00:30:12;5.70;99.90
20070;DHT22;10195;50.868;4.382;2023-03-15T00:32:38;5.70;99.90
20070;DHT22;10195;50.868;4.382;2023-03-15T00:35:04;5.70;99.90
20070;DHT22;10195;50.868;4.382;2023-03-15T00:37:30;5.70;99.90
20070;DHT22;10195;50.868;4.382;2023-03-15T00:39:56;5.90;99.90
20070;DHT22;10195;50.868;4.382;2023-03-15T00:42:22;6.00;99.90
20070;DHT22;10195;50.868;4.382;2023-03-15T00:44:52;6.00;99.90
20070;DHT22;10195;50.868;4.382;2023-03-15T00:47:19;5.90;99.90
20070;DHT22;10195;50.868;4.382;2023-03-15T00:49:45;5.90;99.90
20070;DHT22;10195;50.868;4.382;2023-03-15T00:52:10;5.90;99.90
20070;DHT22;10195;50.868;4.382;2023-03-15T00:54:37;6.00;99.90
20070;DHT22;10195;50.868;4.382;2023-03-15T00:57:03;6.10;99.90
20070;DHT22;10195;50.868;4.382;2023-03-15T00:59:30;6.00;99.90
20070;DHT22;10195;50.868;4.382;2023-03-15T01:02:03;6.10;99.90
20070;DHT22;10195;50.868;4.382;2023-03-15T01:04:30;6.10;99.90
20070;DHT22;10195;50.868;4.382;2023-03-15T01:06:56;6.10;99.90
20070;DHT22;10195;50.868;4.382;2023-03-15T01:09:22;5.90;99.90
20070;DHT22;10195;50.868;4.382;2023-03-15T01:11:48;5.80;99.90
20070;DHT22;10195;50.868;4.382;2023-03-15T01:14:13;5.70;99.90
20070;DHT22;10195;50.868;4.382;2023-03-15T01:16:39;5.70;99.90
20070;DHT22;10195;50.868;4.382;2023-03-15T01:19:05;5.60;99.90
20070;DHT22;10195;50.868;4.382;2023-03-15T01:21:30;5.50;99.90
20070;DHT22;10195;50.868;4.382;2023-03-15T01:23:56;5.60;99.90
20070;DHT22;10195;50.868;4.382;2023-03-15T01:26:22;5.50;99.90
20070;DHT22;10195;50.868;4.382;2023-03-15T01:28:48;5.50;99.90
20070;DHT22;10195;50.868;4.382;2023-03-15T01:31:19;5.40;99.90
20070;DHT22;10195;50.868;4.382;2023-03-15T01:33:45;5.20;99.90
20070;DHT22;10195;50.868;4.382;2023-03-15T01:36:12;5.20;99.90
20070;DHT22;10195;50.868;4.382;2023-03-15T01:38:37;5.30;99.90
20070;DHT22;10195;50.868;4.382;2023-03-15T01:41:03;5.40;99.90
20070;DHT22;10195;50.868;4.382;2023-03-15T01:43:30;5.40;99.90
20070;DHT22;10195;50.868;4.382;2023-03-15T01:54:19;5.40;99.90
20070;DHT22;10195;50.868;4.382;2023-03-15T01:57:07;5.50;99.90
20070;DHT22;10195;50.868;4.382;2023-03-15T01:59:46;5.40;99.90
20070;DHT22;10195;50.868;4.382;2023-03-15T02:02:13;5.50;99.90
20070;DHT22;10195;50.868;4.382;2023-03-15T02:04:49;5.50;99.90
20070;DHT22;10195;50.868;4.382;2023-03-15T02:07:19;5.60;99.90
20070;DHT22;10195;50.868;4.382;2023-03-15T02:12:27;5.70;99.90
20070;DHT22;10195;50.868;4.382;2023-03-15T02:14:55;5.70;99.90
20070;DHT22;10195;50.868;4.382;2023-03-15T02:17:28;5.70;99.90
20070;DHT22;10195;50.868;4.382;2023-03-15T02:26:20;5.60;99.90
20070;DHT22;10195;50.868;4.382;2023-03-15T02:28:36;5.70;99.90
20070;DHT22;10195;50.868;4.382;2023-03-15T02:31:02;5.70;99.90
20070;DHT22;10195;50.868;4.382;2023-03-15T02:33:31;5.90;99.90
20070;DHT22;10195;50.868;4.382;2023-03-15T02:36:28;5.90;99.90
20070;DHT22;10195;50.868;4.382;2023-03-15T02:38:54;5.80;99.90
20070;DHT22;10195;50.868;4.382;2023-03-15T02:41:25;5.70;99.90
20070;DHT22;10195;50.868;4.382;2023-03-15T02:43:57;5.80;99.90
20070;DHT22;10195;50.868;4.382;2023-03-15T02:46:24;5.70;99.90
20070;DHT22;10195;50.868;4.382;2023-03-15T02:48:52;5.80;99.90
20070;DHT22;10195;50.868;4.382;2023-03-15T02:51:20;5.80;99.90
20070;DHT22;10195;50.868;4.382;2023-03-15T02:53:47;5.90;99.90
20070;DHT22;10195;50.868;4.382;2023-03-15T02:56:13;5.80;99.90
20070;DHT22;10195;50.868;4.382;2023-03-15T02:58:40;5.90;99.90
20070;DHT22;10195;50.868;4.382;2023-03-15T03:01:06;6.00;99.90
20070;DHT22;10195;50.868;4.382;2023-03-15T03:03:32;6.00;99.90
20070;DHT22;10195;50.868;4.382;2023-03-15T03:05:58;6.00;99.90
20070;DHT22;10195;50.868;4.382;2023-03-15T03:08:24;6.00;99.90
20070;DHT22;10195;50.868;4.382;2023-03-15T03:10:49;6.00;99.90
20070;DHT22;10195;50.868;4.382;2023-03-15T03:13:15;6.00;99.90
20070;DHT22;10195;50.868;4.382;2023-03-15T03:15:41;6.10;99.90
20070;DHT22;10195;50.868;4.382;2023-03-15T03:18:10;6.00;99.90
20070;DHT22;10195;50.868;4.382;2023-03-15T03:20:35;6.00;99.90
20070;DHT22;10195;50.868;4.382;2023-03-15T03:23:01;6.00;99.90
20070;DHT22;10195;50.868;4.382;2023-03-15T03:25:31;6.00;99.90
20070;DHT22;10195;50.868;4.382;2023-03-15T03:27:57;6.00;99.90
20070;DHT22;10195;50.868;4.382;2023-03-15T03:30:23;6.00;99.90
20070;DHT22;10195;50.868;4.382;2023-03-15T03:32:49;5.90;99.90
20070;DHT22;10195;50.868;4.382;2023-03-15T03:35:15;5.90;99.90
20070;DHT22;10195;50.868;4.382;2023-03-15T03:37:41;5.90;99.90
20070;DHT22;10195;50.868;4.382;2023-03-15T03:40:07;5.70;99.90
20070;DHT22;10195;50.868;4.382;2023-03-15T03:42:34;5.90;99.90
20070;DHT22;10195;50.868;4.382;2023-03-15T03:45:00;5.90;99.90
20070;DHT22;10195;50.868;4.382;2023-03-15T03:47:26;5.90;99.90
20070;DHT22;10195;50.868;4.382;2023-03-15T03:49:52;5.90;99.90
20070;DHT22;10195;50.868;4.382;2023-03-15T03:52:17;5.90;99.90
20070;DHT22;10195;50.868;4.382;2023-03-15T03:54:43;5.90;99.90
20070;DHT22;10195;50.868;4.382;2023-03-15T03:57:09;5.90;99.90
20070;DHT22;10195;50.868;4.382;2023-03-15T03:59:35;5.90;99.90
20070;DHT22;10195;50.868;4.382;2023-03-15T04:02:01;5.90;99.90
20070;DHT22;10195;50.868;4.382;2023-03-15T04:04:26;5.80;99.90
20070;DHT22;10195;50.868;4.382;2023-03-15T04:06:52;5.80;99.90
20070;DHT22;10195;50.868;4.382;2023-03-15T04:09:19;5.80;99.90
20070;DHT22;10195;50.868;4.382;2023-03-15T04:11:46;5.70;99.90
20070;DHT22;10195;50.868;4.382;2023-03-15T04:14:13;5.70;99.90
20070;DHT22;10195;50.868;4.382;2023-03-15T04:16:39;5.70;99.90
20070;DHT22;10195;50.868;4.382;2023-03-15T04:19:05;5.60;99.90
20070;DHT22;10195;50.868;4.382;2023-03-15T04:21:32;5.70;99.90
20070;DHT22;10195;50.868;4.382;2023-03-15T04:23:59;5.70;99.90
20070;DHT22;10195;50.868;4.382;2023-03-15T04:26:25;5.70;99.90
20070;DHT22;10195;50.868;4.382;2023-03-15T04:28:56;5.70;99.90
20070;DHT22;10195;50.868;4.382;2023-03-15T04:31:22;5.70;99.90
20070;DHT22;10195;50.868;4.382;2023-03-15T04:33:54;5.70;99.90
20070;DHT22;10195;50.868;4.382;2023-03-15T04:36:21;5.60;99.90
20070;DHT22;10195;50.868;4.382;2023-03-15T04:38:47;5.50;99.90
20070;DHT22;10195;50.868;4.382;2023-03-15T04:41:17;5.60;99.90
20070;DHT22;10195;50.868;4.382;2023-03-15T04:43:43;5.60;99.90
20070;DHT22;10195;50.868;4.382;2023-03-15T04:46:10;5.60;99.90
20070;DHT22;10195;50.868;4.382;2023-03-15T04:48:36;5.60;99.90
20070;DHT22;10195;50.868;4.382;2023-03-15T04:51:02;5.50;99.90
20070;DHT22;10195;50.868;4.382;2023-03-15T04:53:28;5.50;99.90
20070;DHT22;10195;50.868;4.382;2023-03-15T04:55:53;5.50;99.90
20070;DHT22;10195;50.868;4.382;2023-03-15T04:58:19;5.50;99.90
20070;DHT22;10195;50.868;4.382;2023-03-15T05:00:45;5.30;99.90
20070;DHT22;10195;50.868;4.382;2023-03-15T05:03:11;5.30;99.90
20070;DHT22;10195;50.868;4.382;2023-03-15T05:05:36;5.30;99.90
20070;DHT22;10195;50.868;4.382;2023-03-15T05:08:02;5.20;99.90
20070;DHT22;10195;50.868;4.382;2023-03-15T05:10:28;5.30;99.90
20070;DHT22;10195;50.868;4.382;2023-03-15T05:12:57;5.30;99.90
20070;DHT22;10195;50.868;4.382;2023-03-15T05:15:23;5.20;99.90
20070;DHT22;10195;50.868;4.382;2023-03-15T05:17:48;5.20;99.90
20070;DHT22;10195;50.868;4.382;2023-03-15T05:20:15;5.30;99.90
20070;DHT22;10195;50.868;4.382;2023-03-15T05:22:41;5.20;99.90
20070;DHT22;10195;50.868;4.382;2023-03-15T05:25:08;5.20;99.90
20070;DHT22;10195;50.868;4.382;2023-03-15T05:27:34;5.10;99.90
20070;DHT22;10195;50.868;4.382;2023-03-15T05:30:01;5.10;99.90
20070;DHT22;10195;50.868;4.382;2023-03-15T05:32:28;5.10;99.90
20070;DHT22;10195;50.868;4.382;2023-03-15T05:34:54;5.10;99.90
20070;DHT22;10195;50.868;4.382;2023-03-15T05:37:23;5.10;99.90
20070;DHT22;10195;50.868;4.382;2023-03-15T05:39:48;5.20;99.90
20070;DHT22;10195;50.868;4.382;2023-03-15T05:42:15;5.20;99.90
20070;DHT22;10195;50.868;4.382;2023-03-15T05:44:46;5.20;99.90
20070;DHT22;10195;50.868;4.382;2023-03-15T05:47:12;5.40;99.90
20070;DHT22;10195;50.868;4.382;2023-03-15T05:49:37;5.40;99.90
20070;DHT22;10195;50.868;4.382;2023-03-15T05:52:03;5.40;99.90
20070;DHT22;10195;50.868;4.382;2023-03-15T05:54:29;5.30;99.90
20070;DHT22;10195;50.868;4.382;2023-03-15T05:56:54;5.30;99.90
20070;DHT22;10195;50.868;4.382;2023-03-15T05:59:20;5.30;99.90
20070;DHT22;10195;50.868;4.382;2023-03-15T06:01:46;5.30;99.90
20070;DHT22;10195;50.868;4.382;2023-03-15T06:04:11;5.40;99.90
20070;DHT22;10195;50.868;4.382;2023-03-15T06:06:37;5.30;99.90
20070;DHT22;10195;50.868;4.382;2023-03-15T06:09:03;5.30;99.90
20070;DHT22;10195;50.868;4.382;2023-03-15T06:11:28;5.20;99.90
20070;DHT22;10195;50.868;4.382;2023-03-15T06:13:54;5.20;99.90
20070;DHT22;10195;50.868;4.382;2023-03-15T06:16:20;5.20;99.90
20070;DHT22;10195;50.868;4.382;2023-03-15T06:18:45;5.10;99.90
20070;DHT22;10195;50.868;4.382;2023-03-15T06:21:11;5.10;99.90
20070;DHT22;10195;50.868;4.382;2023-03-15T06:23:37;5.10;99.90
20070;DHT22;10195;50.868;4.382;2023-03-15T06:26:02;5.20;99.90
20070;DHT22;10195;50.868;4.382;2023-03-15T06:28:28;5.20;99.90
20070;DHT22;10195;50.868;4.382;2023-03-15T06:30:53;5.30;99.90
20070;DHT22;10195;50.868;4.382;2023-03-15T06:33:19;5.30;99.90
20070;DHT22;10195;50.868;4.382;2023-03-15T06:35:46;5.30;99.90
20070;DHT22;10195;50.868;4.382;2023-03-15T06:38:11;5.40;99.90
20070;DHT22;10195;50.868;4.382;2023-03-15T06:40:38;5.30;99.90
20070;DHT22;10195;50.868;4.382;2023-03-15T06:43:04;5.30;99.90
20070;DHT22;10195;50.868;4.382;2023-03-15T06:45:31;5.40;99.90
20070;DHT22;10195;50.868;4.382;2023-03-15T06:47:57;5.50;99.90
20070;DHT22;10195;50.868;4.382;2023-03-15T06:50:23;5.50;99.90
20070;DHT22;10195;50.868;4.382;2023-03-15T06:52:49;5.50;99.90
20070;DHT22;10195;50.868;4.382;2023-03-15T06:55:15;5.50;99.90
20070;DHT22;10195;50.868;4.382;2023-03-15T06:57:43;5.60;99.90
20070;DHT22;10195;50.868;4.382;2023-03-15T07:00:10;5.60;99.90
20070;DHT22;10195;50.868;4.382;2023-03-15T07:02:36;5.80;99.90
20070;DHT22;10195;50.868;4.382;2023-03-15T07:05:05;6.00;99.90
20070;DHT22;10195;50.868;4.382;2023-03-15T07:07:31;6.20;99.90
20070;DHT22;10195;50.868;4.382;2023-03-15T07:09:56;6.50;99.90
20070;DHT22;10195;50.868;4.382;2023-03-15T07:12:22;7.00;99.90
20070;DHT22;10195;50.868;4.382;2023-03-15T07:14:48;7.40;99.90
20070;DHT22;10195;50.868;4.382;2023-03-15T07:17:14;7.50;99.90
20070;DHT22;10195;50.868;4.382;2023-03-15T07:19:40;7.50;99.90
20070;DHT22;10195;50.868;4.382;2023-03-15T07:22:05;7.60;99.90
20070;DHT22;10195;50.868;4.382;2023-03-15T07:24:31;7.90;99.90
20070;DHT22;10195;50.868;4.382;2023-03-15T07:26:57;8.30;99.90
20070;DHT22;10195;50.868;4.382;2023-03-15T07:29:23;8.60;99.90
20070;DHT22;10195;50.868;4.382;2023-03-15T07:31:49;9.00;99.90
20070;DHT22;10195;50.868;4.382;2023-03-15T07:34:15;9.40;99.90
20070;DHT22;10195;50.868;4.382;2023-03-15T07:36:41;9.50;99.90
20070;DHT22;10195;50.868;4.382;2023-03-15T07:39:06;9.70;99.90
20070;DHT22;10195;50.868;4.382;2023-03-15T07:41:32;9.90;99.90
20070;DHT22;10195;50.868;4.382;2023-03-15T07:43:58;9.90;99.90
20070;DHT22;10195;50.868;4.382;2023-03-15T07:46:23;9.90;99.90
20070;DHT22;10195;50.868;4.382;2023-03-15T07:48:49;9.80;99.90
20070;DHT22;10195;50.868;4.382;2023-03-15T07:51:15;9.80;99.90
20070;DHT22;10195;50.868;4.382;2023-03-15T07:53:40;9.80;99.90
20070;DHT22;10195;50.868;4.382;2023-03-15T07:56:06;9.80;99.90
20070;DHT22;10195;50.868;4.382;2023-03-15T07:58:32;9.80;99.90
20070;DHT22;10195;50.868;4.382;2023-03-15T08:00:57;10.10;99.90
20070;DHT22;10195;50.868;4.382;2023-03-15T08:03:24;10.10;99.90
20070;DHT22;10195;50.868;4.382;2023-03-15T08:05:51;10.10;99.90
20070;DHT22;10195;50.868;4.382;2023-03-15T08:08:17;10.30;99.90
20070;DHT22;10195;50.868;4.382;2023-03-15T08:10:43;10.40;99.90
20070;DHT22;10195;50.868;4.382;2023-03-15T08:13:09;10.30;99.90
20070;DHT22;10195;50.868;4.382;2023-03-15T08:15:35;10.40;99.90
20070;DHT22;10195;50.868;4.382;2023-03-15T08:18:01;10.30;99.90
20070;DHT22;10195;50.868;4.382;2023-03-15T08:20:27;10.00;99.90
20070;DHT22;10195;50.868;4.382;2023-03-15T08:22:54;10.20;99.90
20070;DHT22;10195;50.868;4.382;2023-03-15T08:25:21;10.30;99.90
20070;DHT22;10195;50.868;4.382;2023-03-15T08:27:48;10.40;99.90
20070;DHT22;10195;50.868;4.382;2023-03-15T08:30:15;10.20;99.90
20070;DHT22;10195;50.868;4.382;2023-03-15T08:32:43;10.00;99.90
20070;DHT22;10195;50.868;4.382;2023-03-15T08:35:11;9.60;99.90
20070;DHT22;10195;50.868;4.382;2023-03-15T08:37:38;9.60;99.90
20070;DHT22;10195;50.868;4.382;2023-03-15T08:40:04;9.70;99.90
20070;DHT22;10195;50.868;4.382;2023-03-15T08:42:34;9.50;99.90
20070;DHT22;10195;50.868;4.382;2023-03-15T08:45:01;9.30;99.90
20070;DHT22;10195;50.868;4.382;2023-03-15T08:47:27;9.30;99.90
20070;DHT22;10195;50.868;4.382;2023-03-15T08:49:52;9.30;99.90
20070;DHT22;10195;50.868;4.382;2023-03-15T08:52:19;9.30;99.90
20070;DHT22;10195;50.868;4.382;2023-03-15T08:54:46;9.70;99.90
20070;DHT22;10195;50.868;4.382;2023-03-15T08:57:11;10.90;99.90
20070;DHT22;10195;50.868;4.382;2023-03-15T08:59:38;12.30;99.90
20070;DHT22;10195;50.868;4.382;2023-03-15T09:02:04;13.10;99.90
20070;DHT22;10195;50.868;4.382;2023-03-15T09:04:31;13.80;99.90
20070;DHT22;10195;50.868;4.382;2023-03-15T09:06:57;13.00;99.90
20070;DHT22;10195;50.868;4.382;2023-03-15T09:09:23;12.00;99.90
20070;DHT22;10195;50.868;4.382;2023-03-15T09:11:49;12.60;99.90
20070;DHT22;10195;50.868;4.382;2023-03-15T09:14:14;12.50;99.90
20070;DHT22;10195;50.868;4.382;2023-03-15T09:16:40;12.00;99.90
20070;DHT22;10195;50.868;4.382;2023-03-15T09:19:06;10.70;99.90
20070;DHT22;10195;50.868;4.382;2023-03-15T09:21:31;9.70;99.90
20070;DHT22;10195;50.868;4.382;2023-03-15T09:23:57;9.00;99.90
20070;DHT22;10195;50.868;4.382;2023-03-15T09:26:23;9.40;99.90
20070;DHT22;10195;50.868;4.382;2023-03-15T09:28:48;9.30;99.90
20070;DHT22;10195;50.868;4.382;2023-03-15T09:31:14;9.30;99.90
20070;DHT22;10195;50.868;4.382;2023-03-15T09:33:40;9.00;99.90
20070;DHT22;10195;50.868;4.382;2023-03-15T09:36:06;8.90;99.90
20070;DHT22;10195;50.868;4.382;2023-03-15T09:38:32;8.80;99.90
20070;DHT22;10195;50.868;4.382;2023-03-15T09:40:58;8.90;99.90
20070;DHT22;10195;50.868;4.382;2023-03-15T09:46:15;8.70;99.90
20070;DHT22;10195;50.868;4.382;2023-03-15T09:48:55;8.40;99.90
20070;DHT22;10195;50.868;4.382;2023-03-15T09:54:15;7.90;99.90
20070;DHT22;10195;50.868;4.382;2023-03-15T09:56:59;8.00;99.90
20070;DHT22;10195;50.868;4.382;2023-03-15T09:59:35;8.10;99.90
20070;DHT22;10195;50.868;4.382;2023-03-15T10:02:18;8.30;99.90
20070;DHT22;10195;50.868;4.382;2023-03-15T10:04:46;8.70;99.90
20070;DHT22;10195;50.868;4.382;2023-03-15T10:07:14;9.40;99.90
20070;DHT22;10195;50.868;4.382;2023-03-15T10:09:41;10.40;99.90
20070;DHT22;10195;50.868;4.382;2023-03-15T10:12:13;11.60;99.90
20070;DHT22;10195;50.868;4.382;2023-03-15T10:20:26;15.20;99.90
20070;DHT22;10195;50.868;4.382;2023-03-15T10:23:01;15.40;99.90
20070;DHT22;10195;50.868;4.382;2023-03-15T10:25:31;16.30;99.90
20070;DHT22;10195;50.868;4.382;2023-03-15T10:28:07;16.50;99.90
20070;DHT22;10195;50.868;4.382;2023-03-15T10:30:37;16.80;99.90
20070;DHT22;10195;50.868;4.382;2023-03-15T10:35:34;16.60;99.90
20070;DHT22;10195;50.868;4.382;2023-03-15T10:38:00;17.50;99.90
20070;DHT22;10195;50.868;4.382;2023-03-15T10:43:20;17.60;99.90
20070;DHT22;10195;50.868;4.382;2023-03-15T10:46:07;16.30;99.90
20070;DHT22;10195;50.868;4.382;2023-03-15T10:48:38;15.70;99.90
20070;DHT22;10195;50.868;4.382;2023-03-15T10:51:19;14.90;99.90
20070;DHT22;10195;50.868;4.382;2023-03-15T10:54:21;14.10;99.90
20070;DHT22;10195;50.868;4.382;2023-03-15T10:56:59;13.60;99.90
20070;DHT22;10195;50.868;4.382;2023-03-15T10:59:28;13.30;99.90
20070;DHT22;10195;50.868;4.382;2023-03-15T11:04:42;13.10;99.90
20070;DHT22;10195;50.868;4.382;2023-03-15T11:07:08;13.20;99.90
20070;DHT22;10195;50.868;4.382;2023-03-15T11:09:40;12.50;99.90
20070;DHT22;10195;50.868;4.382;2023-03-15T11:12:29;12.80;99.90
20070;DHT22;10195;50.868;4.382;2023-03-15T11:15:03;12.20;99.90
20070;DHT22;10195;50.868;4.382;2023-03-15T11:17:35;12.10;99.90
20070;DHT22;10195;50.868;4.382;2023-03-15T11:20:27;12.20;99.90
20070;DHT22;10195;50.868;4.382;2023-03-15T11:22:56;11.90;99.90
20070;DHT22;10195;50.868;4.382;2023-03-15T11:25:27;11.90;99.90
20070;DHT22;10195;50.868;4.382;2023-03-15T11:27:55;12.30;99.90
20070;DHT22;10195;50.868;4.382;2023-03-15T11:30:29;12.30;99.90
20070;DHT22;10195;50.868;4.382;2023-03-15T11:33:03;12.40;99.90
20070;DHT22;10195;50.868;4.382;2023-03-15T11:35:42;12.20;99.90
20070;DHT22;10195;50.868;4.382;2023-03-15T11:38:36;12.10;99.90
20070;DHT22;10195;50.868;4.382;2023-03-15T11:43:58;12.10;99.90
20070;DHT22;10195;50.868;4.382;2023-03-15T11:46:33;11.70;99.90
20070;DHT22;10195;50.868;4.382;2023-03-15T11:49:08;11.50;99.90
20070;DHT22;10195;50.868;4.382;2023-03-15T11:51:36;12.00;99.90
20070;DHT22;10195;50.868;4.382;2023-03-15T11:54:16;12.20;99.90
20070;DHT22;10195;50.868;4.382;2023-03-15T11:59:11;11.80;99.90
20070;DHT22;10195;50.868;4.382;2023-03-15T12:01:46;12.00;99.90
20070;DHT22;10195;50.868;4.382;2023-03-15T12:04:25;12.30;99.90
20070;DHT22;10195;50.868;4.382;2023-03-15T12:06:55;12.30;99.90
20070;DHT22;10195;50.868;4.382;2023-03-15T12:12:05;11.90;99.90
20070;DHT22;10195;50.868;4.382;2023-03-15T12:14:35;12.00;99.90
20070;DHT22;10195;50.868;4.382;2023-03-15T12:25:43;11.90;99.90
20070;DHT22;10195;50.868;4.382;2023-03-15T12:28:24;11.80;99.90
20070;DHT22;10195;50.868;4.382;2023-03-15T12:30:54;11.30;99.90
20070;DHT22;10195;50.868;4.382;2023-03-15T12:33:21;11.50;99.90
20070;DHT22;10195;50.868;4.382;2023-03-15T12:35:48;12.00;99.90
20070;DHT22;10195;50.868;4.382;2023-03-15T12:38:22;12.10;99.90
20070;DHT22;10195;50.868;4.382;2023-03-15T12:40:55;12.60;99.90
20070;DHT22;10195;50.868;4.382;2023-03-15T12:43:44;12.60;99.90
20070;DHT22;10195;50.868;4.382;2023-03-15T12:49:11;12.50;99.90
20070;DHT22;10195;50.868;4.382;2023-03-15T12:52:03;12.20;99.90
20070;DHT22;10195;50.868;4.382;2023-03-15T12:54:52;12.30;99.90
20070;DHT22;10195;50.868;4.382;2023-03-15T12:57:23;12.10;99.90
20070;DHT22;10195;50.868;4.382;2023-03-15T13:00:09;11.90;99.90
20070;DHT22;10195;50.868;4.382;2023-03-15T13:02:44;12.00;99.90
20070;DHT22;10195;50.868;4.382;2023-03-15T13:08:19;11.80;99.90
20070;DHT22;10195;50.868;4.382;2023-03-15T13:11:04;11.90;99.90
20070;DHT22;10195;50.868;4.382;2023-03-15T13:13:48;11.90;99.90
20070;DHT22;10195;50.868;4.382;2023-03-15T13:16:38;11.60;99.90
20070;DHT22;10195;50.868;4.382;2023-03-15T13:22:02;11.60;99.90
20070;DHT22;10195;50.868;4.382;2023-03-15T13:24:35;11.60;99.90
20070;DHT22;10195;50.868;4.382;2023-03-15T13:29:51;11.50;99.90
20070;DHT22;10195;50.868;4.382;2023-03-15T13:32:22;11.60;99.90
20070;DHT22;10195;50.868;4.382;2023-03-15T13:34:48;11.70;99.90
20070;DHT22;10195;50.868;4.382;2023-03-15T13:37:19;11.80;99.90
20070;DHT22;10195;50.868;4.382;2023-03-15T13:40:04;11.60;99.90
20070;DHT22;10195;50.868;4.382;2023-03-15T13:42:39;11.40;99.90
20070;DHT22;10195;50.868;4.382;2023-03-15T13:45:12;11.10;99.90
20070;DHT22;10195;50.868;4.382;2023-03-15T13:47:42;11.30;99.90
20070;DHT22;10195;50.868;4.382;2023-03-15T13:50:16;11.50;99.90
20070;DHT22;10195;50.868;4.382;2023-03-15T13:52:42;11.60;99.90
20070;DHT22;10195;50.868;4.382;2023-03-15T13:55:13;11.60;99.90
20070;DHT22;10195;50.868;4.382;2023-03-15T13:57:38;11.60;99.90
20070;DHT22;10195;50.868;4.382;2023-03-15T14:00:25;11.80;99.90
20070;DHT22;10195;50.868;4.382;2023-03-15T14:03:00;11.90;99.90
20070;DHT22;10195;50.868;4.382;2023-03-15T14:05:32;11.90;99.90
20070;DHT22;10195;50.868;4.382;2023-03-15T14:08:04;11.70;99.90
20070;DHT22;10195;50.868;4.382;2023-03-15T14:13:32;11.70;99.90
20070;DHT22;10195;50.868;4.382;2023-03-15T14:16:07;11.80;99.90
20070;DHT22;10195;50.868;4.382;2023-03-15T14:18:39;11.90;99.90
20070;DHT22;10195;50.868;4.382;2023-03-15T14:21:17;11.80;99.90
20070;DHT22;10195;50.868;4.382;2023-03-15T14:23:46;11.80;99.90
20070;DHT22;10195;50.868;4.382;2023-03-15T14:26:27;11.90;99.90
20070;DHT22;10195;50.868;4.382;2023-03-15T14:31:26;11.90;99.90
20070;DHT22;10195;50.868;4.382;2023-03-15T14:33:55;11.90;99.90
20070;DHT22;10195;50.868;4.382;2023-03-15T14:36:38;11.80;99.90
20070;DHT22;10195;50.868;4.382;2023-03-15T14:39:26;11.80;99.90
20070;DHT22;10195;50.868;4.382;2023-03-15T14:41:53;12.10;99.90
20070;DHT22;10195;50.868;4.382;2023-03-15T14:44:18;12.10;99.90
20070;DHT22;10195;50.868;4.382;2023-03-15T14:46:44;12.20;99.90
20070;DHT22;10195;50.868;4.382;2023-03-15T14:49:22;12.10;99.90
20070;DHT22;10195;50.868;4.382;2023-03-15T14:54:23;11.90;99.90
20070;DHT22;10195;50.868;4.382;2023-03-15T14:56:48;11.80;99.90
20070;DHT22;10195;50.868;4.382;2023-03-15T14:59:14;11.70;99.90
20070;DHT22;10195;50.868;4.382;2023-03-15T15:01:43;11.60;99.90
20070;DHT22;10195;50.868;4.382;2023-03-15T15:04:11;11.60;99.90
20070;DHT22;10195;50.868;4.382;2023-03-15T15:06:37;11.50;99.90
20070;DHT22;10195;50.868;4.382;2023-03-15T15:09:03;11.60;99.90
20070;DHT22;10195;50.868;4.382;2023-03-15T15:11:30;11.50;99.90
20070;DHT22;10195;50.868;4.382;2023-03-15T15:13:56;11.60;99.90
20070;DHT22;10195;50.868;4.382;2023-03-15T15:16:23;11.60;99.90
20070;DHT22;10195;50.868;4.382;2023-03-15T15:18:48;11.70;99.90
20070;DHT22;10195;50.868;4.382;2023-03-15T15:21:29;11.90;99.90
20070;DHT22;10195;50.868;4.382;2023-03-15T15:23:55;11.80;99.90
20070;DHT22;10195;50.868;4.382;2023-03-15T15:26:23;11.90;99.90
20070;DHT22;10195;50.868;4.382;2023-03-15T15:28:50;12.00;99.90
20070;DHT22;10195;50.868;4.382;2023-03-15T15:31:19;11.90;99.90
20070;DHT22;10195;50.868;4.382;2023-03-15T15:33:50;11.80;99.90
20070;DHT22;10195;50.868;4.382;2023-03-15T15:38:45;11.50;99.90
20070;DHT22;10195;50.868;4.382;2023-03-15T15:41:18;11.40;99.90
20070;DHT22;10195;50.868;4.382;2023-03-15T15:43:46;11.40;99.90
20070;DHT22;10195;50.868;4.382;2023-03-15T15:46:12;11.50;99.90
20070;DHT22;10195;50.868;4.382;2023-03-15T15:48:38;11.60;99.90
20070;DHT22;10195;50.868;4.382;2023-03-15T15:51:16;11.40;99.90
20070;DHT22;10195;50.868;4.382;2023-03-15T15:53:43;11.40;99.90
20070;DHT22;10195;50.868;4.382;2023-03-15T15:56:10;11.30;99.90
20070;DHT22;10195;50.868;4.382;2023-03-15T15:58:42;11.00;99.90
20070;DHT22;10195;50.868;4.382;2023-03-15T16:01:15;11.10;99.90
20070;DHT22;10195;50.868;4.382;2023-03-15T16:03:41;11.10;99.90
20070;DHT22;10195;50.868;4.382;2023-03-15T16:06:15;11.20;99.90
20070;DHT22;10195;50.868;4.382;2023-03-15T16:08:45;11.30;99.90
20070;DHT22;10195;50.868;4.382;2023-03-15T16:11:13;11.60;99.90
20070;DHT22;10195;50.868;4.382;2023-03-15T16:13:39;11.50;99.90
20070;DHT22;10195;50.868;4.382;2023-03-15T16:16:08;11.50;99.90
20070;DHT22;10195;50.868;4.382;2023-03-15T16:18:34;11.50;99.90
20070;DHT22;10195;50.868;4.382;2023-03-15T16:21:00;11.60;99.90
20070;DHT22;10195;50.868;4.382;2023-03-15T16:23:25;11.30;99.90
20070;DHT22;10195;50.868;4.382;2023-03-15T16:25:53;11.30;99.90
20070;DHT22;10195;50.868;4.382;2023-03-15T16:28:23;11.30;99.90
20070;DHT22;10195;50.868;4.382;2023-03-15T16:30:49;11.30;99.90
20070;DHT22;10195;50.868;4.382;2023-03-15T16:33:17;11.10;99.90
20070;DHT22;10195;50.868;4.382;2023-03-15T16:35:44;11.20;99.90
20070;DHT22;10195;50.868;4.382;2023-03-15T16:38:19;11.00;99.90
20070;DHT22;10195;50.868;4.382;2023-03-15T16:40:50;11.00;99.90
20070;DHT22;10195;50.868;4.382;2023-03-15T16:43:17;10.90;99.90
20070;DHT22;10195;50.868;4.382;2023-03-15T16:45:43;11.10;99.90
20070;DHT22;10195;50.868;4.382;2023-03-15T16:48:09;10.90;99.90
20070;DHT22;10195;50.868;4.382;2023-03-15T16:50:36;10.80;99.90
20070;DHT22;10195;50.868;4.382;2023-03-15T16:53:05;10.80;99.90
20070;DHT22;10195;50.868;4.382;2023-03-15T16:55:32;10.70;99.90
20070;DHT22;10195;50.868;4.382;2023-03-15T16:57:59;10.70;99.90
20070;DHT22;10195;50.868;4.382;2023-03-15T17:00:25;10.80;99.90
20070;DHT22;10195;50.868;4.382;2023-03-15T17:02:51;10.90;99.90
20070;DHT22;10195;50.868;4.382;2023-03-15T17:05:18;10.80;99.90